Time;durP1;ratioP1;P1;durP2;ratioP2;P2;SDS_P1;SDS_P2;PMS_P1;PMS_P2;Temp;Humidity;BMP_temperature;BMP_pressure;BME280_temperature;BME280_humidity;BME280_pressure;Samples;Min_cycle;Max_cycle;Signal;HPM_P1;HPM_P2
2024/01/06 00:02:18;;;;;;;;;;;;;;;;;;5277097;28;19920;-58
2024/01/06 00:04:49;;;;;;;;;;;;;;;;;;5265385;28;20425;-58
2024/01/06 00:07:21;;;;;;;;;;;;;;;;;;5278646;28;19919;-58
2024/01/06 00:09:52;;;;;;;;;;;;;;;;;;5265439;28;19928;-58
2024/01/06 00:12:23;;;;;;;;;;;;;;;;;;5249713;28;20002;-59
2024/01/06 00:14:54;;;;;;;;;;;;;;;;;;5272635;28;20023;-58
2024/01/06 00:17:25;;;;;;;;;;;;;;;;;;5269060;28;20002;-58
2024/01/06 00:19:56;;;;;;;;;;;;;;;;;;5257810;28;20298;-57
2024/01/06 00:22:27;;;;;;;;;;;;;;;;;;5272708;28;20431;-57
2024/01/06 00:24:59;;;;;;;;;;;;;;;;;;5269064;28;20271;-58
2024/01/06 00:27:30;;;;;;;;;;;;;;;;;;5299070;27;19966;-57
2024/01/06 00:30:01;;;;;;;;;;;;;;;;;;5265925;28;20007;-57
2024/01/06 00:32:32;;;;;;;;;;;;;;;;;;5280907;27;19920;-57
2024/01/06 00:35:03;;;;;;;;;;;;;;;;;;5265791;28;19928;-57
2024/01/06 00:37:34;;;;;;;;;;;;;;;;;;5265598;28;19931;-58
2024/01/06 00:40:05;;;;;;;;;;;;;;;;;;5268815;28;20105;-58
2024/01/06 00:42:36;;;;;;;;;;;;;;;;;;5281812;28;19974;-58
2024/01/06 00:45:07;;;;;;;;;;;;;;;;;;5268050;28;19924;-58
2024/01/06 00:47:38;;;;;;;;;;;;;;;;;;5265260;28;19923;-58
2024/01/06 00:50:10;;;;;;;;;;;;;;;;;;5277798;28;19924;-59
2024/01/06 00:52:41;;;;;;;;;;;;;;;;;;5268339;28;19920;-58
2024/01/06 00:55:12;;;;;;;;;;;;;;;;;;5250572;28;19920;-58
2024/01/06 00:57:43;;;;;;;;;;;;;;;;;;5277581;28;19927;-58
2024/01/06 01:00:14;;;;;;;;;;;;;;;;;;5268683;28;19920;-59
2024/01/06 01:02:45;;;;;;;;;;;;;;;;;;5264908;28;19969;-59
2024/01/06 01:05:16;;;;;;;;;;;;;;;;;;5255450;28;19924;-58
2024/01/06 01:07:47;;;;;;;;;;;;;;;;;;5268872;28;19928;-59
2024/01/06 01:10:18;;;;;;;;;;;;;;;;;;5274997;28;19928;-59
2024/01/06 01:12:49;;;;;;;;;;;;;;;;;;5273857;28;19928;-59
2024/01/06 01:15:20;;;;;;;;;;;;;;;;;;5270780;28;20023;-59
2024/01/06 01:17:51;;;;;;;;;;;;;;;;;;5268560;28;20465;-59
2024/01/06 01:20:22;;;;;;;;;;;;;;;;;;5268249;28;19972;-58
2024/01/06 01:22:53;;;;;;;;;;;;;;;;;;5263919;28;19924;-58
2024/01/06 01:25:24;;;;;;;;;;;;;;;;;;5260558;28;19920;-58
2024/01/06 01:27:55;;;;;;;;;;;;;;;;;;5265139;28;19977;-58
2024/01/06 01:30:26;;;;;;;;;;;;;;;;;;5281937;28;20733;-58
2024/01/06 01:32:57;;;;;;;;;;;;;;;;;;5253833;28;20045;-58
2024/01/06 01:35:28;;;;;;;;;;;;;;;;;;5267023;28;20003;-58
2024/01/06 01:37:59;;;;;;;;;;;;;;;;;;5279381;28;19938;-59
2024/01/06 01:40:30;;;;;;;;;;;;;;;;;;5264804;28;20469;-58
2024/01/06 01:43:01;;;;;;;;;;;;;;;;;;5274303;28;19923;-58
2024/01/06 01:45:32;;;;;;;;;;;;;;;;;;5271897;28;20004;-58
2024/01/06 01:48:03;;;;;;;;;;;;;;;;;;5247674;28;19920;-59
2024/01/06 01:50:34;;;;;;;;;;;;;;;;;;5263931;28;19924;-58
2024/01/06 01:53:05;;;;;;;;;;;;;;;;;;5252495;28;19994;-59
2024/01/06 01:55:36;;;;;;;;;;;;;;;;;;5270241;28;19928;-58
2024/01/06 01:58:07;;;;;;;;;;;;;;;;;;5265525;28;19927;-60
2024/01/06 02:00:38;;;;;;;;;;;;;;;;;;5250221;28;20530;-58
2024/01/06 02:03:09;;;;;;;;;;;;;;;;;;5279054;28;20020;-58
2024/01/06 02:05:40;;;;;;;;;;;;;;;;;;5264850;28;19965;-58
2024/01/06 02:08:14;;;;;;;;;;;;;;;;;;5266962;28;19920;-59
2024/01/06 02:10:45;;;;;;;;;;;;;;;;;;5268052;28;19920;-58
2024/01/06 02:13:16;;;;;;;;;;;;;;;;;;5277538;28;20282;-59
2024/01/06 02:15:47;;;;;;;;;;;;;;;;;;5286541;28;19919;-58
2024/01/06 02:18:18;;;;;;;;;;;;;;;;;;5288463;28;19923;-58
2024/01/06 02:20:49;;;;;;;;;;;;;;;;;;5282935;28;19920;-59
2024/01/06 02:23:20;;;;;;;;;;;;;;;;;;5287280;28;19924;-58
2024/01/06 02:25:51;;;;;;;;;;;;;;;;;;5285180;28;19920;-58
2024/01/06 02:28:22;;;;;;;;;;;;;;;;;;5270589;28;19923;-58
2024/01/06 02:30:53;;;;;;;;;;;;;;;;;;5268148;28;20066;-58
2024/01/06 02:33:24;;;;;;;;;;;;;;;;;;5268129;28;20015;-58
2024/01/06 02:35:55;;;;;;;;;;;;;;;;;;5301171;27;19923;-57
2024/01/06 02:38:26;;;;;;;;;;;;;;;;;;5259880;28;19927;-60
2024/01/06 02:40:57;;;;;;;;;;;;;;;;;;5267618;28;19928;-58
2024/01/06 02:43:28;;;;;;;;;;;;;;;;;;5267255;28;19928;-58
2024/01/06 02:45:59;;;;;;;;;;;;;;;;;;5268295;28;20309;-58
2024/01/06 02:48:31;;;;;;;;;;;;;;;;;;5254098;28;19923;-58
2024/01/06 02:51:02;;;;;;;;;;;;;;;;;;5274329;28;19927;-56
2024/01/06 02:53:33;;;;;;;;;;;;;;;;;;5284194;28;19927;-58
2024/01/06 02:56:04;;;;;;;;;;;;;;;;;;5267755;28;19924;-58
2024/01/06 02:58:35;;;;;;;;;;;;;;;;;;5278329;28;19927;-58
2024/01/06 03:01:06;;;;;;;;;;;;;;;;;;5272661;28;19924;-58
2024/01/06 03:03:37;;;;;;;;;;;;;;;;;;5292081;27;19984;-58
2024/01/06 03:06:08;;;;;;;;;;;;;;;;;;5270787;28;19920;-58
2024/01/06 03:08:40;;;;;;;;;;;;;;;;;;5286315;28;19924;-57
2024/01/06 03:11:11;;;;;;;;;;;;;;;;;;5284299;28;19943;-57
2024/01/06 03:13:42;;;;;;;;;;;;;;;;;;5266730;28;20256;-57
2024/01/06 03:16:13;;;;;;;;;;;;;;;;;;5276954;28;19997;-57
2024/01/06 03:18:44;;;;;;;;;;;;;;;;;;5267021;28;19926;-58
2024/01/06 03:21:15;;;;;;;;;;;;;;;;;;5280112;28;19928;-57
2024/01/06 03:23:46;;;;;;;;;;;;;;;;;;5283671;28;19946;-58
2024/01/06 03:26:17;;;;;;;;;;;;;;;;;;5279316;28;19930;-58
2024/01/06 03:28:48;;;;;;;;;;;;;;;;;;5272594;28;20653;-58
2024/01/06 03:31:22;;;;;;;;;;;;;;;;;;5267515;28;19946;-58
2024/01/06 03:33:54;;;;;;;;;;;;;;;;;;5317206;27;19920;-58
2024/01/06 03:36:25;;;;;;;;;;;;;;;;;;5287635;28;20305;-58
2024/01/06 03:38:56;;;;;;;;;;;;;;;;;;5281991;28;19924;-58
2024/01/06 03:41:27;;;;;;;;;;;;;;;;;;5277438;28;20431;-59
2024/01/06 03:43:58;;;;;;;;;;;;;;;;;;5268260;28;19975;-58
2024/01/06 03:46:29;;;;;;;;;;;;;;;;;;5286064;28;19923;-58
2024/01/06 03:49:00;;;;;;;;;;;;;;;;;;5286131;28;19947;-57
2024/01/06 03:51:31;;;;;;;;;;;;;;;;;;5268363;28;19920;-57
2024/01/06 03:54:02;;;;;;;;;;;;;;;;;;5277050;28;19920;-57
2024/01/06 03:56:33;;;;;;;;;;;;;;;;;;5268365;28;19986;-57
2024/01/06 03:59:05;;;;;;;;;;;;;;;;;;5268279;28;19924;-57
2024/01/06 04:01:36;;;;;;;;;;;;;;;;;;5268613;28;19942;-57
2024/01/06 04:04:08;;;;;;;;;;;;;;;;;;5268910;28;20348;-57
2024/01/06 04:06:39;;;;;;;;;;;;;;;;;;5267805;28;19945;-57
2024/01/06 04:09:10;;;;;;;;;;;;;;;;;;5273354;28;20015;-57
2024/01/06 04:11:41;;;;;;;;;;;;;;;;;;5289350;27;19924;-57
2024/01/06 04:14:12;;;;;;;;;;;;;;;;;;5284221;27;20018;-57
2024/01/06 04:16:43;;;;;;;;;;;;;;;;;;5251007;28;20432;-57
2024/01/06 04:19:15;;;;;;;;;;;;;;;;;;5295058;27;19927;-57
2024/01/06 04:21:47;;;;;;;;;;;;;;;;;;5279147;28;19924;-58
2024/01/06 04:24:18;;;;;;;;;;;;;;;;;;5300323;27;19924;-57
2024/01/06 04:26:49;;;;;;;;;;;;;;;;;;5282774;28;19974;-57
2024/01/06 04:29:20;;;;;;;;;;;;;;;;;;5271477;28;19959;-58
2024/01/06 04:31:51;;;;;;;;;;;;;;;;;;5277641;28;19919;-56
2024/01/06 04:34:22;;;;;;;;;;;;;;;;;;5302118;27;19978;-57
2024/01/06 04:36:53;;;;;;;;;;;;;;;;;;5284985;28;20402;-57
2024/01/06 04:39:24;;;;;;;;;;;;;;;;;;5285527;28;20003;-57
2024/01/06 04:41:55;;;;;;;;;;;;;;;;;;5281927;28;20020;-57
2024/01/06 04:44:26;;;;;;;;;;;;;;;;;;5264524;28;20019;-57
2024/01/06 04:46:57;;;;;;;;;;;;;;;;;;5272446;28;20376;-57
2024/01/06 04:49:28;;;;;;;;;;;;;;;;;;5257180;28;19924;-57
2024/01/06 04:51:59;;;;;;;;;;;;;;;;;;5265138;28;19923;-57
2024/01/06 04:54:30;;;;;;;;;;;;;;;;;;5264226;28;19920;-57
2024/01/06 04:57:02;;;;;;;;;;;;;;;;;;5300071;28;20014;-57
2024/01/06 04:59:33;;;;;;;;;;;;;;;;;;5278995;28;20317;-57
2024/01/06 05:02:04;;;;;;;;;;;;;;;;;;5268340;28;19919;-57
2024/01/06 05:04:35;;;;;;;;;;;;;;;;;;5265007;28;19936;-58
2024/01/06 05:07:06;;;;;;;;;;;;;;;;;;5274622;28;19920;-57
2024/01/06 05:09:37;;;;;;;;;;;;;;;;;;5274805;28;20320;-57
2024/01/06 05:12:08;;;;;;;;;;;;;;;;;;5267914;28;19920;-57
2024/01/06 05:14:39;;;;;;;;;;;;;;;;;;5276233;28;20709;-57
2024/01/06 05:17:10;;;;;;;;;;;;;;;;;;5268248;28;20279;-58
2024/01/06 05:19:41;;;;;;;;;;;;;;;;;;5248846;28;19926;-58
2024/01/06 05:22:13;;;;;;;;;;;;;;;;;;5266915;28;19970;-57
2024/01/06 05:24:44;;;;;;;;;;;;;;;;;;5265425;28;19969;-57
2024/01/06 05:27:15;;;;;;;;;;;;;;;;;;5269464;28;19923;-57
2024/01/06 05:29:46;;;;;;;;;;;;;;;;;;5264939;28;19920;-57
2024/01/06 05:32:17;;;;;;;;;;;;;;;;;;5253331;28;19920;-57
2024/01/06 05:34:48;;;;;;;;;;;;;;;;;;5279068;28;20010;-58
2024/01/06 05:37:19;;;;;;;;;;;;;;;;;;5271873;28;19924;-57
2024/01/06 05:39:50;;;;;;;;;;;;;;;;;;5282774;28;19978;-58
2024/01/06 05:42:21;;;;;;;;;;;;;;;;;;5295681;27;19919;-58
2024/01/06 05:44:52;;;;;;;;;;;;;;;;;;5285478;28;20006;-57
2024/01/06 05:47:23;;;;;;;;;;;;;;;;;;5287460;28;20343;-57
2024/01/06 05:49:54;;;;;;;;;;;;;;;;;;5268432;28;19920;-58
2024/01/06 05:52:25;;;;;;;;;;;;;;;;;;5260916;28;19923;-58
2024/01/06 05:54:58;;;;;;;;;;;;;;;;;;5273084;28;19927;-57
2024/01/06 05:57:29;;;;;;;;;;;;;;;;;;5276672;28;19920;-57
2024/01/06 06:00:00;;;;;;;;;;;;;;;;;;5255744;28;20014;-57
2024/01/06 06:02:31;;;;;;;;;;;;;;;;;;5285550;28;20027;-56
2024/01/06 06:05:02;;;;;;;;;;;;;;;;;;5285004;28;19932;-57
2024/01/06 06:07:38;;;;;;;;;;;;;;;;;;5284081;28;20427;-57
2024/01/06 06:10:09;;;;;;;;;;;;;;;;;;5297724;27;19920;-57
2024/01/06 06:12:40;;;;;;;;;;;;;;;;;;5281773;28;20661;-57
2024/01/06 06:15:11;;;;;;;;;;;;;;;;;;5270278;28;19923;-57
2024/01/06 06:17:42;;;;;;;;;;;;;;;;;;5285498;28;19927;-57
2024/01/06 06:20:14;;;;;;;;;;;;;;;;;;5270115;28;19927;-57
2024/01/06 06:22:45;;;;;;;;;;;;;;;;;;5285185;28;19974;-57
2024/01/06 06:25:16;;;;;;;;;;;;;;;;;;5286268;28;20378;-57
2024/01/06 06:27:47;;;;;;;;;;;;;;;;;;5252391;28;19920;-57
2024/01/06 06:30:18;;;;;;;;;;;;;;;;;;5267958;28;19920;-57
2024/01/06 06:32:49;;;;;;;;;;;;;;;;;;5270399;28;19920;-57
2024/01/06 06:35:20;;;;;;;;;;;;;;;;;;5284361;28;20285;-57
2024/01/06 06:37:51;;;;;;;;;;;;;;;;;;5271696;28;19924;-57
2024/01/06 06:40:22;;;;;;;;;;;;;;;;;;5255255;28;19963;-57
2024/01/06 06:42:53;;;;;;;;;;;;;;;;;;5278185;28;19927;-57
2024/01/06 06:45:24;;;;;;;;;;;;;;;;;;5270606;28;20022;-57
2024/01/06 06:47:55;;;;;;;;;;;;;;;;;;5275290;28;20263;-57
2024/01/06 06:50:26;;;;;;;;;;;;;;;;;;5281770;28;19939;-57
2024/01/06 06:52:57;;;;;;;;;;;;;;;;;;5279352;28;19931;-57
2024/01/06 06:55:28;;;;;;;;;;;;;;;;;;5277867;28;19919;-58
2024/01/06 06:57:59;;;;;;;;;;;;;;;;;;5271663;28;19935;-57
2024/01/06 07:00:30;;;;;;;;;;;;;;;;;;5281030;28;19923;-58
2024/01/06 07:03:01;;;;;;;;;;;;;;;;;;5271210;28;20343;-58
2024/01/06 07:05:32;;;;;;;;;;;;;;;;;;5279832;28;20362;-58
2024/01/06 07:08:03;;;;;;;;;;;;;;;;;;5279278;28;19920;-59
2024/01/06 07:10:34;;;;;;;;;;;;;;;;;;5278207;28;20007;-58
2024/01/06 07:13:05;;;;;;;;;;;;;;;;;;5282387;28;19951;-57
2024/01/06 07:15:36;;;;;;;;;;;;;;;;;;5256484;28;19951;-58
2024/01/06 07:18:07;;;;;;;;;;;;;;;;;;5287225;27;19926;-60
2024/01/06 07:20:38;;;;;;;;;;;;;;;;;;5252641;28;20363;-59
2024/01/06 07:23:09;;;;;;;;;;;;;;;;;;5269313;28;19919;-59
2024/01/06 07:25:40;;;;;;;;;;;;;;;;;;5286699;27;20385;-58
2024/01/06 07:28:11;;;;;;;;;;;;;;;;;;5274446;28;20024;-58
2024/01/06 07:30:42;;;;;;;;;;;;;;;;;;5274051;28;19970;-59
2024/01/06 07:33:13;;;;;;;;;;;;;;;;;;5270833;28;19970;-56
2024/01/06 07:35:44;;;;;;;;;;;;;;;;;;5286687;28;19920;-57
2024/01/06 07:38:15;;;;;;;;;;;;;;;;;;5268469;28;20374;-57
2024/01/06 07:40:46;;;;;;;;;;;;;;;;;;5269073;28;19926;-57
2024/01/06 07:43:17;;;;;;;;;;;;;;;;;;5266591;28;20593;-57
2024/01/06 07:45:49;;;;;;;;;;;;;;;;;;5273530;28;19925;-57
2024/01/06 07:48:20;;;;;;;;;;;;;;;;;;5274040;28;20343;-57
2024/01/06 07:50:51;;;;;;;;;;;;;;;;;;5277742;28;19931;-57
2024/01/06 07:53:22;;;;;;;;;;;;;;;;;;5296618;27;20007;-57
2024/01/06 07:55:52;;;;;;;;;;;;;;;;;;5266577;28;19971;-57
2024/01/06 07:58:24;;;;;;;;;;;;;;;;;;5286505;28;19927;-57
2024/01/06 08:00:55;;;;;;;;;;;;;;;;;;5266571;28;19987;-57
2024/01/06 08:03:26;;;;;;;;;;;;;;;;;;5263632;28;19943;-57
2024/01/06 08:05:57;;;;;;;;;;;;;;;;;;5262553;28;20564;-57
2024/01/06 08:08:28;;;;;;;;;;;;;;;;;;5275365;28;19996;-57
2024/01/06 08:10:59;;;;;;;;;;;;;;;;;;5263946;28;20423;-58
2024/01/06 08:13:30;;;;;;;;;;;;;;;;;;5270534;28;19920;-57
2024/01/06 08:16:01;;;;;;;;;;;;;;;;;;5282622;27;20367;-58
2024/01/06 08:18:32;;;;;;;;;;;;;;;;;;5268251;28;19920;-57
2024/01/06 08:21:03;;;;;;;;;;;;;;;;;;5285668;27;19977;-58
2024/01/06 08:23:34;;;;;;;;;;;;;;;;;;5270277;28;19924;-58
2024/01/06 08:26:05;;;;;;;;;;;;;;;;;;5251080;28;19928;-58
2024/01/06 08:28:37;;;;;;;;;;;;;;;;;;5274863;28;19927;-58
2024/01/06 08:31:08;;;;;;;;;;;;;;;;;;5288128;27;20235;-58
2024/01/06 08:33:39;;;;;;;;;;;;;;;;;;5268806;28;19927;-57
2024/01/06 08:36:10;;;;;;;;;;;;;;;;;;5264034;28;20366;-57
2024/01/06 08:38:41;;;;;;;;;;;;;;;;;;5258136;28;20027;-57
2024/01/06 08:41:12;;;;;;;;;;;;;;;;;;5270816;28;19935;-57
2024/01/06 08:43:43;;;;;;;;;;;;;;;;;;5268953;28;19931;-58
2024/01/06 08:46:14;;;;;;;;;;;;;;;;;;5283356;28;19920;-59
2024/01/06 08:48:45;;;;;;;;;;;;;;;;;;5276103;28;19923;-58
2024/01/06 08:51:16;;;;;;;;;;;;;;;;;;5280410;28;19919;-57
2024/01/06 08:53:47;;;;;;;;;;;;;;;;;;5277961;28;19920;-57
2024/01/06 08:56:18;;;;;;;;;;;;;;;;;;5273278;28;19920;-58
2024/01/06 08:58:49;;;;;;;;;;;;;;;;;;5271919;28;19922;-60
2024/01/06 09:01:20;;;;;;;;;;;;;;;;;;5261940;28;20018;-58
2024/01/06 09:03:51;;;;;;;;;;;;;;;;;;5294460;28;20116;-59
2024/01/06 09:06:22;;;;;;;;;;;;;;;;;;5316598;27;20043;-58
2024/01/06 09:08:53;;;;;;;;;;;;;;;;;;5276681;28;19924;-58
2024/01/06 09:11:25;;;;;;;;;;;;;;;;;;5257314;28;20388;-58
2024/01/06 09:13:55;;;;;;;;;;;;;;;;;;5275291;28;19974;-58
2024/01/06 09:16:26;;;;;;;;;;;;;;;;;;5271010;28;19927;-59
2024/01/06 09:18:57;;;;;;;;;;;;;;;;;;5291406;27;19985;-57
2024/01/06 09:21:28;;;;;;;;;;;;;;;;;;5266487;28;19920;-57
2024/01/06 09:24:05;;;;;;;;;;;;;;;;;;5276359;28;19926;-57
2024/01/06 09:26:36;;;;;;;;;;;;;;;;;;5285386;27;19920;-57
2024/01/06 09:29:07;;;;;;;;;;;;;;;;;;5287668;27;19927;-57
2024/01/06 09:31:38;;;;;;;;;;;;;;;;;;5280380;28;20378;-57
2024/01/06 09:34:09;;;;;;;;;;;;;;;;;;5258709;28;19919;-57
2024/01/06 09:36:40;;;;;;;;;;;;;;;;;;5268946;28;20004;-57
2024/01/06 09:39:11;;;;;;;;;;;;;;;;;;5265792;28;20294;-57
2024/01/06 09:41:42;;;;;;;;;;;;;;;;;;5283968;28;19920;-58
2024/01/06 09:44:13;;;;;;;;;;;;;;;;;;5283361;28;20267;-57
2024/01/06 09:46:44;;;;;;;;;;;;;;;;;;5257495;28;20012;-59
2024/01/06 09:49:15;;;;;;;;;;;;;;;;;;5282311;28;19919;-59
2024/01/06 09:51:50;;;;;;;;;;;;;;;;;;5266166;28;20713;-59
2024/01/06 09:54:21;;;;;;;;;;;;;;;;;;5271320;28;19969;-58
2024/01/06 09:56:52;;;;;;;;;;;;;;;;;;5289887;27;19924;-59
2024/01/06 09:59:23;;;;;;;;;;;;;;;;;;5283393;28;19924;-59
2024/01/06 10:01:54;;;;;;;;;;;;;;;;;;5281363;28;19924;-59
2024/01/06 10:04:25;;;;;;;;;;;;;;;;;;5273809;28;20294;-59
2024/01/06 10:06:56;;;;;;;;;;;;;;;;;;5268623;28;19928;-58
2024/01/06 10:09:27;;;;;;;;;;;;;;;;;;5276472;27;19920;-60
2024/01/06 10:12:00;;;;;;;;;;;;;;;;;;5272998;28;20024;-59
2024/01/06 10:14:31;;;;;;;;;;;;;;;;;;5280071;28;19926;-63
2024/01/06 10:17:02;;;;;;;;;;;;;;;;;;5270958;28;20024;-61
2024/01/06 10:19:33;;;;;;;;;;;;;;;;;;5282717;27;19988;-61
2024/01/06 10:22:04;;;;;;;;;;;;;;;;;;5265307;28;19923;-59
2024/01/06 10:24:35;;;;;;;;;;;;;;;;;;5280978;28;19928;-59
2024/01/06 10:27:06;;;;;;;;;;;;;;;;;;5275953;28;20011;-60
2024/01/06 10:29:37;;;;;;;;;;;;;;;;;;5276149;28;19924;-60
2024/01/06 10:32:08;;;;;;;;;;;;;;;;;;5272254;28;19928;-60
2024/01/06 10:34:39;;;;;;;;;;;;;;;;;;5272437;28;19928;-60
2024/01/06 10:37:10;;;;;;;;;;;;;;;;;;5279844;28;19930;-61
2024/01/06 10:39:41;;;;;;;;;;;;;;;;;;5265320;28;19920;-61
2024/01/06 10:42:12;;;;;;;;;;;;;;;;;;5277681;28;19927;-60
2024/01/06 10:44:43;;;;;;;;;;;;;;;;;;5271347;28;20013;-60
2024/01/06 10:47:14;;;;;;;;;;;;;;;;;;5259941;28;20010;-62
2024/01/06 10:49:45;;;;;;;;;;;;;;;;;;5279809;28;19988;-59
2024/01/06 10:52:16;;;;;;;;;;;;;;;;;;5278594;28;19920;-61
2024/01/06 10:54:50;;;;;;;;;;;;;;;;;;5275237;28;19999;-62
2024/01/06 10:57:21;;;;;;;;;;;;;;;;;;5282194;28;19923;-61
2024/01/06 10:59:52;;;;;;;;;;;;;;;;;;5270348;28;19964;-58
2024/01/06 11:02:23;;;;;;;;;;;;;;;;;;5279867;28;19928;-60
2024/01/06 11:04:54;;;;;;;;;;;;;;;;;;5270541;28;19932;-63
2024/01/06 11:07:25;;;;;;;;;;;;;;;;;;5273852;28;20362;-59
2024/01/06 11:09:57;;;;;;;;;;;;;;;;;;5271183;28;20019;-59
2024/01/06 11:12:28;;;;;;;;;;;;;;;;;;5271846;28;19920;-60
2024/01/06 11:14:59;;;;;;;;;;;;;;;;;;5272337;28;19920;-59
2024/01/06 11:17:30;;;;;;;;;;;;;;;;;;5270685;28;19920;-57
2024/01/06 11:20:01;;;;;;;;;;;;;;;;;;5277431;28;19928;-58
2024/01/06 11:22:32;;;;;;;;;;;;;;;;;;5268275;28;20020;-58
2024/01/06 11:25:03;;;;;;;;;;;;;;;;;;5303863;27;19931;-58
2024/01/06 11:27:35;;;;;;;;;;;;;;;;;;5269949;28;19930;-56
2024/01/06 11:30:06;;;;;;;;;;;;;;;;;;5267666;28;19924;-57
2024/01/06 11:32:41;;;;;;;;;;;;;;;;;;5285204;28;19924;-56
2024/01/06 11:35:12;;;;;;;;;;;;;;;;;;5273516;28;19985;-56
2024/01/06 11:37:43;;;;;;;;;;;;;;;;;;5283318;27;20335;-55
2024/01/06 11:40:14;;;;;;;;;;;;;;;;;;5268405;28;19924;-56
2024/01/06 11:42:45;;;;;;;;;;;;;;;;;;5276275;28;19924;-55
2024/01/06 11:45:16;;;;;;;;;;;;;;;;;;5284988;28;19924;-57
2024/01/06 11:47:47;;;;;;;;;;;;;;;;;;5279922;28;20026;-55
2024/01/06 11:50:18;;;;;;;;;;;;;;;;;;5268977;28;20401;-56
2024/01/06 11:52:50;;;;;;;;;;;;;;;;;;5257358;28;19920;-56
2024/01/06 11:55:21;;;;;;;;;;;;;;;;;;5257512;28;20038;-56
2024/01/06 11:57:52;;;;;;;;;;;;;;;;;;5288148;28;19993;-55
2024/01/06 12:00:23;;;;;;;;;;;;;;;;;;5275308;28;20035;-55
2024/01/06 12:02:54;;;;;;;;;;;;;;;;;;5267373;28;20367;-56
2024/01/06 12:05:26;;;;;;;;;;;;;;;;;;5267682;28;19928;-57
2024/01/06 12:07:57;;;;;;;;;;;;;;;;;;5304141;27;19931;-57
2024/01/06 12:10:32;;;;;;;;;;;;;;;;;;5271332;28;20009;-57
2024/01/06 12:13:03;;;;;;;;;;;;;;;;;;5270647;28;19924;-57
2024/01/06 12:15:34;;;;;;;;;;;;;;;;;;5275199;28;19980;-58
2024/01/06 12:18:05;;;;;;;;;;;;;;;;;;5281631;28;19920;-57
2024/01/06 12:20:36;;;;;;;;;;;;;;;;;;5273274;28;19940;-58
2024/01/06 12:23:07;;;;;;;;;;;;;;;;;;5280397;28;19945;-58
2024/01/06 12:25:39;;;;;;;;;;;;;;;;;;5277078;28;20034;-56
2024/01/06 12:28:10;;;;;;;;;;;;;;;;;;5262055;28;19931;-56
2024/01/06 12:30:41;;;;;;;;;;;;;;;;;;5275282;28;20286;-57
2024/01/06 12:33:12;;;;;;;;;;;;;;;;;;5275130;28;19920;-56
2024/01/06 12:35:43;;;;;;;;;;;;;;;;;;5268268;28;19943;-56
2024/01/06 12:38:14;;;;;;;;;;;;;;;;;;5277911;28;19920;-55
2024/01/06 12:40:45;;;;;;;;;;;;;;;;;;5281836;28;19927;-57
2024/01/06 12:43:16;;;;;;;;;;;;;;;;;;5284435;28;19924;-57
2024/01/06 12:45:47;;;;;;;;;;;;;;;;;;5261296;28;20430;-57
2024/01/06 12:48:18;;;;;;;;;;;;;;;;;;5279967;28;20362;-57
2024/01/06 12:50:49;;;;;;;;;;;;;;;;;;5284955;28;19927;-57
2024/01/06 12:53:20;;;;;;;;;;;;;;;;;;5274705;28;20000;-55
2024/01/06 12:55:51;;;;;;;;;;;;;;;;;;5285698;28;19928;-56
2024/01/06 13:54:30;;;;;;;;;;;;;;;;;;5180017;28;19925;-56
2024/01/06 13:57:01;;;;;;;;;;;;;;;;;;5162771;28;19921;-56
2024/01/06 13:59:32;;;;;;;;;;;;;;;;;;5177670;28;19947;-56
2024/01/06 14:02:03;;;;;;;;;;;;;;;;;;5198569;28;19929;-56
2024/01/06 14:04:34;;;;;;;;;;;;;;;;;;5186612;28;20598;-56
2024/01/06 14:07:05;;;;;;;;;;;;;;;;;;5205427;28;20006;-55
2024/01/06 14:09:36;;;;;;;;;;;;;;;;;;5196699;28;20006;-56
2024/01/06 14:12:07;;;;;;;;;;;;;;;;;;5204774;28;20015;-55
2024/01/06 14:14:38;;;;;;;;;;;;;;;;;;5205650;28;20019;-55
2024/01/06 14:17:09;;;;;;;;;;;;;;;;;;5207128;28;19928;-56
2024/01/06 14:19:40;;;;;;;;;;;;;;;;;;5170123;28;20093;-55
2024/01/06 14:22:11;;;;;;;;;;;;;;;;;;5168359;28;19976;-55
2024/01/06 14:24:42;;;;;;;;;;;;;;;;;;5184647;28;20282;-55
2024/01/06 14:27:13;;;;;;;;;;;;;;;;;;5205832;28;19925;-56
2024/01/06 14:29:44;;;;;;;;;;;;;;;;;;5188328;28;19921;-56
2024/01/06 14:32:15;;;;;;;;;;;;;;;;;;5180655;28;19983;-56
2024/01/06 14:34:46;;;;;;;;;;;;;;;;;;5194712;28;19933;-56
2024/01/06 14:37:18;;;;;;;;;;;;;;;;;;5206486;28;19925;-56
2024/01/06 14:39:49;;;;;;;;;;;;;;;;;;5203134;28;19979;-56
2024/01/06 14:42:20;;;;;;;;;;;;;;;;;;5183845;28;20414;-56
2024/01/06 14:44:51;;;;;;;;;;;;;;;;;;5200557;28;19960;-56
2024/01/06 14:47:23;;;;;;;;;;;;;;;;;;5168857;28;19921;-56
2024/01/06 14:49:54;;;;;;;;;;;;;;;;;;5188599;28;19925;-56
2024/01/06 14:52:25;;;;;;;;;;;;;;;;;;5189304;28;19956;-56
2024/01/06 14:54:56;;;;;;;;;;;;;;;;;;5189298;28;19933;-56
2024/01/06 14:57:27;;;;;;;;;;;;;;;;;;5189040;28;20019;-56
2024/01/06 14:59:58;;;;;;;;;;;;;;;;;;5188603;28;20008;-56
2024/01/06 15:02:29;;;;;;;;;;;;;;;;;;5187066;28;19932;-56
2024/01/06 15:05:00;;;;;;;;;;;;;;;;;;5188408;28;19933;-56
2024/01/06 15:07:31;;;;;;;;;;;;;;;;;;5199024;28;20311;-56
2024/01/06 15:10:03;;;;;;;;;;;;;;;;;;5202328;28;19936;-56
2024/01/06 15:12:34;;;;;;;;;;;;;;;;;;5183898;28;19975;-56
2024/01/06 15:15:05;;;;;;;;;;;;;;;;;;5184897;28;19922;-55
2024/01/06 15:17:36;;;;;;;;;;;;;;;;;;5185469;28;19928;-58
2024/01/06 15:20:09;;;;;;;;;;;;;;;;;;5206361;28;20232;-55
2024/01/06 15:22:40;;;;;;;;;;;;;;;;;;5204666;28;19925;-56
2024/01/06 15:25:11;;;;;;;;;;;;;;;;;;5188500;28;20419;-56
2024/01/06 15:27:42;;;;;;;;;;;;;;;;;;5191607;28;19964;-56
2024/01/06 15:30:15;;;;;;;;;;;;;;;;;;5204999;28;19924;-56
2024/01/06 15:32:46;;;;;;;;;;;;;;;;;;5204243;28;20007;-57
2024/01/06 15:35:18;;;;;;;;;;;;;;;;;;5184446;28;20363;-56
2024/01/06 15:37:49;;;;;;;;;;;;;;;;;;5185426;28;20399;-56
2024/01/06 15:40:20;;;;;;;;;;;;;;;;;;5178292;28;19925;-57
2024/01/06 15:42:51;;;;;;;;;;;;;;;;;;5174282;28;19925;-57
2024/01/06 15:45:22;;;;;;;;;;;;;;;;;;5187592;28;19984;-56
2024/01/06 15:47:53;;;;;;;;;;;;;;;;;;5187456;28;20033;-56
2024/01/06 15:50:25;;;;;;;;;;;;;;;;;;5187477;28;19929;-57
2024/01/06 15:52:56;;;;;;;;;;;;;;;;;;5204027;28;20311;-56
2024/01/06 15:55:27;;;;;;;;;;;;;;;;;;5187192;28;19927;-56
2024/01/06 15:57:58;;;;;;;;;;;;;;;;;;5202131;28;20377;-56
2024/01/06 16:00:29;;;;;;;;;;;;;;;;;;5156789;28;19957;-56
2024/01/06 16:03:00;;;;;;;;;;;;;;;;;;5174233;28;20417;-57
2024/01/06 16:05:31;;;;;;;;;;;;;;;;;;5202903;28;19928;-57
2024/01/06 16:08:02;;;;;;;;;;;;;;;;;;5184924;28;20000;-57
2024/01/06 16:10:35;;;;;;;;;;;;;;;;;;5177494;28;19925;-56
2024/01/06 16:13:06;;;;;;;;;;;;;;;;;;5184447;28;19928;-56
2024/01/06 16:15:37;;;;;;;;;;;;;;;;;;5203071;28;19925;-56
2024/01/06 16:18:08;;;;;;;;;;;;;;;;;;5157377;28;19926;-57
2024/01/06 16:20:39;;;;;;;;;;;;;;;;;;5180986;28;20491;-58
2024/01/06 16:23:13;;;;;;;;;;;;;;;;;;5184657;28;19921;-56
2024/01/06 16:25:44;;;;;;;;;;;;;;;;;;5197137;28;20008;-56
2024/01/06 16:28:15;;;;;;;;;;;;;;;;;;5175547;28;20037;-56
2024/01/06 16:30:46;;;;;;;;;;;;;;;;;;5167644;28;20392;-56
2024/01/06 16:33:17;;;;;;;;;;;;;;;;;;5181649;28;19964;-57
2024/01/06 16:35:48;;;;;;;;;;;;;;;;;;5168257;28;19926;-57
2024/01/06 16:38:19;;;;;;;;;;;;;;;;;;5197842;28;19922;-56
2024/01/06 16:40:50;;;;;;;;;;;;;;;;;;5181885;28;19921;-58
2024/01/06 16:43:21;;;;;;;;;;;;;;;;;;5202697;28;20438;-57
2024/01/06 16:45:55;;;;;;;;;;;;;;;;;;5176879;28;20127;-57
2024/01/06 16:48:26;;;;;;;;;;;;;;;;;;5203163;28;20008;-57
2024/01/06 16:50:57;;;;;;;;;;;;;;;;;;5180852;28;19929;-57
2024/01/06 16:53:28;;;;;;;;;;;;;;;;;;5177768;28;19948;-56
2024/01/06 16:55:59;;;;;;;;;;;;;;;;;;5178439;28;19921;-56
2024/01/06 16:58:30;;;;;;;;;;;;;;;;;;5186293;28;19925;-55
2024/01/06 17:01:02;;;;;;;;;;;;;;;;;;5198599;28;19998;-56
2024/01/06 17:03:33;;;;;;;;;;;;;;;;;;5177822;28;20372;-56
2024/01/06 17:06:04;;;;;;;;;;;;;;;;;;5174023;28;19931;-56
2024/01/06 17:08:37;;;;;;;;;;;;;;;;;;5182196;28;20376;-56
2024/01/06 17:11:10;;;;;;;;;;;;;;;;;;5202874;28;19925;-57
2024/01/06 17:13:41;;;;;;;;;;;;;;;;;;5183384;28;19921;-56
2024/01/06 17:16:12;;;;;;;;;;;;;;;;;;5202731;28;20382;-56
2024/01/06 17:18:43;;;;;;;;;;;;;;;;;;5185847;28;20445;-56
2024/01/06 17:21:15;;;;;;;;;;;;;;;;;;5201856;28;19970;-56
2024/01/06 17:23:47;;;;;;;;;;;;;;;;;;5179673;28;19922;-56
2024/01/06 17:26:18;;;;;;;;;;;;;;;;;;5177781;28;19976;-56
2024/01/06 17:28:50;;;;;;;;;;;;;;;;;;5202605;28;20196;-56
2024/01/06 17:31:21;;;;;;;;;;;;;;;;;;5184030;28;19921;-57
2024/01/06 17:33:51;;;;;;;;;;;;;;;;;;5174420;28;19939;-57
2024/01/06 17:36:23;;;;;;;;;;;;;;;;;;5185314;28;19921;-56
2024/01/06 17:38:54;;;;;;;;;;;;;;;;;;5189865;28;19921;-58
2024/01/06 17:41:24;;;;;;;;;;;;;;;;;;5186920;28;19921;-55
2024/01/06 17:43:57;;;;;;;;;;;;;;;;;;5196794;28;19932;-55
2024/01/06 17:46:29;;;;;;;;;;;;;;;;;;5168939;28;19921;-57
2024/01/06 17:49:00;;;;;;;;;;;;;;;;;;5189537;28;20356;-56
2024/01/06 17:51:31;;;;;;;;;;;;;;;;;;5189647;28;20380;-56
2024/01/06 17:54:02;;;;;;;;;;;;;;;;;;5185827;28;20365;-56
2024/01/06 17:56:33;;;;;;;;;;;;;;;;;;5185622;28;19933;-56
2024/01/06 17:59:04;;;;;;;;;;;;;;;;;;5175566;28;20234;-55
2024/01/06 18:01:35;;;;;;;;;;;;;;;;;;5180216;28;19922;-56
2024/01/06 18:04:06;;;;;;;;;;;;;;;;;;5181771;28;19933;-56
2024/01/06 18:06:37;;;;;;;;;;;;;;;;;;5179783;28;19925;-56
2024/01/06 18:09:08;;;;;;;;;;;;;;;;;;5186676;28;20003;-57